<?xml version="1.0" encoding="UTF-8"?>
<gpx xmlns="http://www.topografix.com/GPX/1/1" xmlns:xsi="http://www.w3.org/2001/XMLSchema-instance" version="1.1" xsi:schemaLocation="http://www.topografix.com/GPX/1/1 http://www.topografix.com/GPX/1/1/gpx.xsd">
  <metadata>
    <name>Saugerties Triathlon 2023 - Sprint Aquabike</name>
  </metadata>
  <trk>
    <name>Saugerties Triathlon 2023 - Sprint Aquabike</name>
    <trkseg>
      <trkpt lat="42.073696" lon="-73.949941">
        <ele>24.863082</ele>
        <time>2024-09-15T08:35:00.000Z</time>
      </trkpt>
      <trkpt lat="42.073735" lon="-73.950517">
        <ele>24.863074</ele>
        <time>2024-09-15T08:35:05.000Z</time>
      </trkpt>
      <trkpt lat="42.073793" lon="-73.950521">
        <ele>24.863083</ele>
        <time>2024-09-15T08:35:06.000Z</time>
      </trkpt>
      <trkpt lat="42.074041" lon="-73.950624">
        <ele>24.86308</ele>
        <time>2024-09-15T08:35:09.000Z</time>
      </trkpt>
      <trkpt lat="42.074365" lon="-73.950801">
        <ele>26.431763</ele>
        <time>2024-09-15T08:35:13.000Z</time>
      </trkpt>
      <trkpt lat="42.074923" lon="-73.951096">
        <ele>30.838675</ele>
        <time>2024-09-15T08:35:20.000Z</time>
      </trkpt>
      <trkpt lat="42.075403" lon="-73.951315">
        <ele>34.596647</ele>
        <time>2024-09-15T08:35:26.000Z</time>
      </trkpt>
      <trkpt lat="42.075688" lon="-73.951432">
        <ele>36.720631</ele>
        <time>2024-09-15T08:35:29.000Z</time>
      </trkpt>
      <trkpt lat="42.075851" lon="-73.951497">
        <ele>37.934022</ele>
        <time>2024-09-15T08:35:31.000Z</time>
      </trkpt>
      <trkpt lat="42.076012" lon="-73.951565">
        <ele>38.705497</ele>
        <time>2024-09-15T08:35:33.000Z</time>
      </trkpt>
      <trkpt lat="42.076294" lon="-73.95171">
        <ele>39.798753</ele>
        <time>2024-09-15T08:35:36.000Z</time>
      </trkpt>
      <trkpt lat="42.076693" lon="-73.951903">
        <ele>41.36588</ele>
        <time>2024-09-15T08:35:41.000Z</time>
      </trkpt>
      <trkpt lat="42.077151" lon="-73.952102">
        <ele>43.083725</ele>
        <time>2024-09-15T08:35:46.000Z</time>
      </trkpt>
      <trkpt lat="42.077782" lon="-73.952414">
        <ele>44.834657</ele>
        <time>2024-09-15T08:35:53.000Z</time>
      </trkpt>
      <trkpt lat="42.078049" lon="-73.951627">
        <ele>45.141275</ele>
        <time>2024-09-15T08:36:00.000Z</time>
      </trkpt>
      <trkpt lat="42.078224" lon="-73.951071">
        <ele>45.350068</ele>
        <time>2024-09-15T08:36:05.000Z</time>
      </trkpt>
      <trkpt lat="42.07859" lon="-73.950028">
        <ele>45.410967</ele>
        <time>2024-09-15T08:36:15.000Z</time>
      </trkpt>
      <trkpt lat="42.079017" lon="-73.948839">
        <ele>44.983668</ele>
        <time>2024-09-15T08:36:26.000Z</time>
      </trkpt>
      <trkpt lat="42.079346" lon="-73.947917">
        <ele>44.8088</ele>
        <time>2024-09-15T08:36:34.000Z</time>
      </trkpt>
      <trkpt lat="42.079584" lon="-73.947212">
        <ele>44.841215</ele>
        <time>2024-09-15T08:36:40.000Z</time>
      </trkpt>
      <trkpt lat="42.079708" lon="-73.946881">
        <ele>44.855786</ele>
        <time>2024-09-15T08:36:43.000Z</time>
      </trkpt>
      <trkpt lat="42.079806" lon="-73.946521">
        <ele>44.87113</ele>
        <time>2024-09-15T08:36:46.000Z</time>
      </trkpt>
      <trkpt lat="42.079905" lon="-73.946074">
        <ele>44.89053</ele>
        <time>2024-09-15T08:36:50.000Z</time>
      </trkpt>
      <trkpt lat="42.079948" lon="-73.945812">
        <ele>45.33416</ele>
        <time>2024-09-15T08:36:52.000Z</time>
      </trkpt>
      <trkpt lat="42.080279" lon="-73.944315">
        <ele>47.85012</ele>
        <time>2024-09-15T08:37:05.000Z</time>
      </trkpt>
      <trkpt lat="42.080364" lon="-73.944125">
        <ele>48.19917</ele>
        <time>2024-09-15T08:37:07.000Z</time>
      </trkpt>
      <trkpt lat="42.080549" lon="-73.944095">
        <ele>48.590443</ele>
        <time>2024-09-15T08:37:09.000Z</time>
      </trkpt>
      <trkpt lat="42.080729" lon="-73.944119">
        <ele>48.909343</ele>
        <time>2024-09-15T08:37:11.000Z</time>
      </trkpt>
      <trkpt lat="42.081539" lon="-73.944082">
        <ele>49.855093</ele>
        <time>2024-09-15T08:37:20.000Z</time>
      </trkpt>
      <trkpt lat="42.081883" lon="-73.944028">
        <ele>50.264905</ele>
        <time>2024-09-15T08:37:24.000Z</time>
      </trkpt>
      <trkpt lat="42.082252" lon="-73.943963">
        <ele>50.695025</ele>
        <time>2024-09-15T08:37:28.000Z</time>
      </trkpt>
      <trkpt lat="42.082448" lon="-73.943921">
        <ele>50.823891</ele>
        <time>2024-09-15T08:37:30.000Z</time>
      </trkpt>
      <trkpt lat="42.083035" lon="-73.943821">
        <ele>49.058993</ele>
        <time>2024-09-15T08:37:37.000Z</time>
      </trkpt>
      <trkpt lat="42.083549" lon="-73.943736">
        <ele>47.470158</ele>
        <time>2024-09-15T08:37:43.000Z</time>
      </trkpt>
      <trkpt lat="42.083824" lon="-73.943637">
        <ele>46.616418</ele>
        <time>2024-09-15T08:37:46.000Z</time>
      </trkpt>
      <trkpt lat="42.084194" lon="-73.943383">
        <ele>45.38665</ele>
        <time>2024-09-15T08:37:51.000Z</time>
      </trkpt>
      <trkpt lat="42.084287" lon="-73.94331">
        <ele>45.111418</ele>
        <time>2024-09-15T08:37:52.000Z</time>
      </trkpt>
      <trkpt lat="42.084423" lon="-73.943189">
        <ele>44.65909</ele>
        <time>2024-09-15T08:37:54.000Z</time>
      </trkpt>
      <trkpt lat="42.085017" lon="-73.942671">
        <ele>42.812585</ele>
        <time>2024-09-15T08:38:02.000Z</time>
      </trkpt>
      <trkpt lat="42.08548" lon="-73.942357">
        <ele>41.423745</ele>
        <time>2024-09-15T08:38:08.000Z</time>
      </trkpt>
      <trkpt lat="42.086874" lon="-73.941812">
        <ele>41.301072</ele>
        <time>2024-09-15T08:38:24.000Z</time>
      </trkpt>
      <trkpt lat="42.087398" lon="-73.941724">
        <ele>41.55287</ele>
        <time>2024-09-15T08:38:30.000Z</time>
      </trkpt>
      <trkpt lat="42.08827" lon="-73.941617">
        <ele>42.231894</ele>
        <time>2024-09-15T08:38:40.000Z</time>
      </trkpt>
      <trkpt lat="42.088721" lon="-73.941453">
        <ele>42.606216</ele>
        <time>2024-09-15T08:38:45.000Z</time>
      </trkpt>
      <trkpt lat="42.089153" lon="-73.941199">
        <ele>42.98767</ele>
        <time>2024-09-15T08:38:50.000Z</time>
      </trkpt>
      <trkpt lat="42.089407" lon="-73.940967">
        <ele>43.347337</ele>
        <time>2024-09-15T08:38:53.000Z</time>
      </trkpt>
      <trkpt lat="42.0897" lon="-73.940663">
        <ele>43.830326</ele>
        <time>2024-09-15T08:38:57.000Z</time>
      </trkpt>
      <trkpt lat="42.090033" lon="-73.940271">
        <ele>44.386521</ele>
        <time>2024-09-15T08:39:02.000Z</time>
      </trkpt>
      <trkpt lat="42.09037" lon="-73.939963">
        <ele>44.912028</ele>
        <time>2024-09-15T08:39:07.000Z</time>
      </trkpt>
      <trkpt lat="42.090649" lon="-73.939803">
        <ele>45.312257</ele>
        <time>2024-09-15T08:39:10.000Z</time>
      </trkpt>
      <trkpt lat="42.090998" lon="-73.939714">
        <ele>46.100559</ele>
        <time>2024-09-15T08:39:14.000Z</time>
      </trkpt>
      <trkpt lat="42.091426" lon="-73.939636">
        <ele>47.152665</ele>
        <time>2024-09-15T08:39:19.000Z</time>
      </trkpt>
      <trkpt lat="42.091875" lon="-73.939605">
        <ele>48.226303</ele>
        <time>2024-09-15T08:39:24.000Z</time>
      </trkpt>
      <trkpt lat="42.092857" lon="-73.939681">
        <ele>50.423998</ele>
        <time>2024-09-15T08:39:35.000Z</time>
      </trkpt>
      <trkpt lat="42.093255" lon="-73.939735">
        <ele>51.225378</ele>
        <time>2024-09-15T08:39:39.000Z</time>
      </trkpt>
      <trkpt lat="42.094016" lon="-73.939949">
        <ele>52.815962</ele>
        <time>2024-09-15T08:39:48.000Z</time>
      </trkpt>
      <trkpt lat="42.094141" lon="-73.939977">
        <ele>53.096041</ele>
        <time>2024-09-15T08:39:49.000Z</time>
      </trkpt>
      <trkpt lat="42.094429" lon="-73.939965">
        <ele>53.467481</ele>
        <time>2024-09-15T08:39:52.000Z</time>
      </trkpt>
      <trkpt lat="42.095029" lon="-73.939809">
        <ele>53.97698</ele>
        <time>2024-09-15T08:39:59.000Z</time>
      </trkpt>
      <trkpt lat="42.095363" lon="-73.939676">
        <ele>54.267973</ele>
        <time>2024-09-15T08:40:03.000Z</time>
      </trkpt>
      <trkpt lat="42.095957" lon="-73.939421">
        <ele>54.797484</ele>
        <time>2024-09-15T08:40:10.000Z</time>
      </trkpt>
      <trkpt lat="42.096057" lon="-73.939386">
        <ele>54.724171</ele>
        <time>2024-09-15T08:40:11.000Z</time>
      </trkpt>
      <trkpt lat="42.096429" lon="-73.939235">
        <ele>54.187189</ele>
        <time>2024-09-15T08:40:15.000Z</time>
      </trkpt>
      <trkpt lat="42.096665" lon="-73.93917">
        <ele>53.859662</ele>
        <time>2024-09-15T08:40:18.000Z</time>
      </trkpt>
      <trkpt lat="42.09725" lon="-73.939059">
        <ele>53.033653</ele>
        <time>2024-09-15T08:40:25.000Z</time>
      </trkpt>
      <trkpt lat="42.097504" lon="-73.939013">
        <ele>52.692835</ele>
        <time>2024-09-15T08:40:28.000Z</time>
      </trkpt>
      <trkpt lat="42.098282" lon="-73.938895">
        <ele>50.815509</ele>
        <time>2024-09-15T08:40:37.000Z</time>
      </trkpt>
      <trkpt lat="42.099359" lon="-73.938819">
        <ele>47.777301</ele>
        <time>2024-09-15T08:40:49.000Z</time>
      </trkpt>
      <trkpt lat="42.099642" lon="-73.938753">
        <ele>47.066387</ele>
        <time>2024-09-15T08:40:52.000Z</time>
      </trkpt>
      <trkpt lat="42.100101" lon="-73.938588">
        <ele>46.293003</ele>
        <time>2024-09-15T08:40:57.000Z</time>
      </trkpt>
      <trkpt lat="42.10125" lon="-73.938111">
        <ele>44.421928</ele>
        <time>2024-09-15T08:41:10.000Z</time>
      </trkpt>
      <trkpt lat="42.101799" lon="-73.937834">
        <ele>44.343176</ele>
        <time>2024-09-15T08:41:17.000Z</time>
      </trkpt>
      <trkpt lat="42.1023" lon="-73.937613">
        <ele>44.320517</ele>
        <time>2024-09-15T08:41:23.000Z</time>
      </trkpt>
      <trkpt lat="42.102678" lon="-73.937541">
        <ele>44.303324</ele>
        <time>2024-09-15T08:41:27.000Z</time>
      </trkpt>
      <trkpt lat="42.103008" lon="-73.937508">
        <ele>44.288537</ele>
        <time>2024-09-15T08:41:31.000Z</time>
      </trkpt>
      <trkpt lat="42.103375" lon="-73.937534">
        <ele>44.203496</ele>
        <time>2024-09-15T08:41:35.000Z</time>
      </trkpt>
      <trkpt lat="42.103999" lon="-73.937714">
        <ele>44.062072</ele>
        <time>2024-09-15T08:41:42.000Z</time>
      </trkpt>
      <trkpt lat="42.105053" lon="-73.937924">
        <ele>43.853722</ele>
        <time>2024-09-15T08:41:54.000Z</time>
      </trkpt>
      <trkpt lat="42.105294" lon="-73.937941">
        <ele>43.831858</ele>
        <time>2024-09-15T08:41:57.000Z</time>
      </trkpt>
      <trkpt lat="42.105769" lon="-73.937909">
        <ele>43.78863</ele>
        <time>2024-09-15T08:42:02.000Z</time>
      </trkpt>
      <trkpt lat="42.105954" lon="-73.937893">
        <ele>43.773341</ele>
        <time>2024-09-15T08:42:04.000Z</time>
      </trkpt>
      <trkpt lat="42.107389" lon="-73.937787">
        <ele>43.816026</ele>
        <time>2024-09-15T08:42:20.000Z</time>
      </trkpt>
      <trkpt lat="42.108042" lon="-73.937713">
        <ele>43.896228</ele>
        <time>2024-09-15T08:42:27.000Z</time>
      </trkpt>
      <trkpt lat="42.108442" lon="-73.937614">
        <ele>43.925032</ele>
        <time>2024-09-15T08:42:32.000Z</time>
      </trkpt>
      <trkpt lat="42.108799" lon="-73.937428">
        <ele>43.859516</ele>
        <time>2024-09-15T08:42:36.000Z</time>
      </trkpt>
      <trkpt lat="42.109078" lon="-73.93727">
        <ele>43.808455</ele>
        <time>2024-09-15T08:42:39.000Z</time>
      </trkpt>
      <trkpt lat="42.109421" lon="-73.93709">
        <ele>43.748026</ele>
        <time>2024-09-15T08:42:43.000Z</time>
      </trkpt>
      <trkpt lat="42.1111" lon="-73.936073">
        <ele>44.532849</ele>
        <time>2024-09-15T08:43:03.000Z</time>
      </trkpt>
      <trkpt lat="42.111386" lon="-73.935951">
        <ele>44.763647</ele>
        <time>2024-09-15T08:43:06.000Z</time>
      </trkpt>
      <trkpt lat="42.111597" lon="-73.935925">
        <ele>44.930297</ele>
        <time>2024-09-15T08:43:08.000Z</time>
      </trkpt>
      <trkpt lat="42.111786" lon="-73.935935">
        <ele>45.102997</ele>
        <time>2024-09-15T08:43:10.000Z</time>
      </trkpt>
      <trkpt lat="42.112517" lon="-73.936195">
        <ele>45.989193</ele>
        <time>2024-09-15T08:43:18.000Z</time>
      </trkpt>
      <trkpt lat="42.112719" lon="-73.936241">
        <ele>46.209668</ele>
        <time>2024-09-15T08:43:20.000Z</time>
      </trkpt>
      <trkpt lat="42.113094" lon="-73.936244">
        <ele>46.652103</ele>
        <time>2024-09-15T08:43:24.000Z</time>
      </trkpt>
      <trkpt lat="42.113914" lon="-73.936166">
        <ele>47.180278</ele>
        <time>2024-09-15T08:43:33.000Z</time>
      </trkpt>
      <trkpt lat="42.114748" lon="-73.93597">
        <ele>47.319516</ele>
        <time>2024-09-15T08:43:42.000Z</time>
      </trkpt>
      <trkpt lat="42.116192" lon="-73.935625">
        <ele>47.387124</ele>
        <time>2024-09-15T08:43:58.000Z</time>
      </trkpt>
      <trkpt lat="42.116464" lon="-73.935526">
        <ele>47.381915</ele>
        <time>2024-09-15T08:44:01.000Z</time>
      </trkpt>
      <trkpt lat="42.116646" lon="-73.935436">
        <ele>47.378422</ele>
        <time>2024-09-15T08:44:03.000Z</time>
      </trkpt>
      <trkpt lat="42.116967" lon="-73.935173">
        <ele>47.371886</ele>
        <time>2024-09-15T08:44:07.000Z</time>
      </trkpt>
      <trkpt lat="42.117211" lon="-73.934966">
        <ele>47.585341</ele>
        <time>2024-09-15T08:44:10.000Z</time>
      </trkpt>
      <trkpt lat="42.117279" lon="-73.935249">
        <ele>47.752468</ele>
        <time>2024-09-15T08:44:12.000Z</time>
      </trkpt>
      <trkpt lat="42.117409" lon="-73.936786">
        <ele>48.597296</ele>
        <time>2024-09-15T08:44:25.000Z</time>
      </trkpt>
      <trkpt lat="42.117459" lon="-73.937151">
        <ele>48.580709</ele>
        <time>2024-09-15T08:44:28.000Z</time>
      </trkpt>
      <trkpt lat="42.117528" lon="-73.937679">
        <ele>48.239069</ele>
        <time>2024-09-15T08:44:32.000Z</time>
      </trkpt>
      <trkpt lat="42.117647" lon="-73.937982">
        <ele>48.015784</ele>
        <time>2024-09-15T08:44:35.000Z</time>
      </trkpt>
      <trkpt lat="42.118745" lon="-73.940048">
        <ele>46.085528</ele>
        <time>2024-09-15T08:44:56.000Z</time>
      </trkpt>
      <trkpt lat="42.119148" lon="-73.940912">
        <ele>45.147234</ele>
        <time>2024-09-15T08:45:04.000Z</time>
      </trkpt>
      <trkpt lat="42.120492" lon="-73.94435">
        <ele>44.672807</ele>
        <time>2024-09-15T08:45:36.000Z</time>
      </trkpt>
      <trkpt lat="42.120599" lon="-73.944677">
        <ele>44.714578</ele>
        <time>2024-09-15T08:45:39.000Z</time>
      </trkpt>
      <trkpt lat="42.120631" lon="-73.944918">
        <ele>44.742784</ele>
        <time>2024-09-15T08:45:41.000Z</time>
      </trkpt>
      <trkpt lat="42.120671" lon="-73.945122">
        <ele>44.767429</ele>
        <time>2024-09-15T08:45:43.000Z</time>
      </trkpt>
      <trkpt lat="42.120726" lon="-73.945266">
        <ele>44.786626</ele>
        <time>2024-09-15T08:45:44.000Z</time>
      </trkpt>
      <trkpt lat="42.120956" lon="-73.945578">
        <ele>44.899958</ele>
        <time>2024-09-15T08:45:48.000Z</time>
      </trkpt>
      <trkpt lat="42.121113" lon="-73.945958">
        <ele>45.078071</ele>
        <time>2024-09-15T08:45:52.000Z</time>
      </trkpt>
      <trkpt lat="42.121125" lon="-73.945979">
        <ele>45.088095</ele>
        <time>2024-09-15T08:45:52.000Z</time>
      </trkpt>
      <trkpt lat="42.121941" lon="-73.947878">
        <ele>46.142796</ele>
        <time>2024-09-15T08:46:10.000Z</time>
      </trkpt>
      <trkpt lat="42.122316" lon="-73.948613">
        <ele>46.792429</ele>
        <time>2024-09-15T08:46:17.000Z</time>
      </trkpt>
      <trkpt lat="42.122337" lon="-73.948678">
        <ele>46.836651</ele>
        <time>2024-09-15T08:46:18.000Z</time>
      </trkpt>
      <trkpt lat="42.122436" lon="-73.948189">
        <ele>47.202329</ele>
        <time>2024-09-15T08:46:22.000Z</time>
      </trkpt>
      <trkpt lat="42.122554" lon="-73.947833">
        <ele>47.485545</ele>
        <time>2024-09-15T08:46:25.000Z</time>
      </trkpt>
      <trkpt lat="42.122779" lon="-73.947541">
        <ele>47.843845</ele>
        <time>2024-09-15T08:46:28.000Z</time>
      </trkpt>
      <trkpt lat="42.123443" lon="-73.94695">
        <ele>48.779307</ele>
        <time>2024-09-15T08:46:37.000Z</time>
      </trkpt>
      <trkpt lat="42.123557" lon="-73.946782">
        <ele>48.998196</ele>
        <time>2024-09-15T08:46:39.000Z</time>
      </trkpt>
      <trkpt lat="42.123594" lon="-73.94667">
        <ele>49.095185</ele>
        <time>2024-09-15T08:46:40.000Z</time>
      </trkpt>
      <trkpt lat="42.123637" lon="-73.946467">
        <ele>49.278311</ele>
        <time>2024-09-15T08:46:42.000Z</time>
      </trkpt>
      <trkpt lat="42.123811" lon="-73.946255">
        <ele>49.552148</ele>
        <time>2024-09-15T08:46:45.000Z</time>
      </trkpt>
      <trkpt lat="42.124217" lon="-73.945631">
        <ele>49.756084</ele>
        <time>2024-09-15T08:46:52.000Z</time>
      </trkpt>
      <trkpt lat="42.124479" lon="-73.945287">
        <ele>49.780258</ele>
        <time>2024-09-15T08:46:56.000Z</time>
      </trkpt>
      <trkpt lat="42.125302" lon="-73.944368">
        <ele>49.816473</ele>
        <time>2024-09-15T08:47:08.000Z</time>
      </trkpt>
      <trkpt lat="42.125532" lon="-73.944118">
        <ele>49.752845</ele>
        <time>2024-09-15T08:47:11.000Z</time>
      </trkpt>
      <trkpt lat="42.125605" lon="-73.944026">
        <ele>49.729895</ele>
        <time>2024-09-15T08:47:12.000Z</time>
      </trkpt>
      <trkpt lat="42.125748" lon="-73.943893">
        <ele>49.690954</ele>
        <time>2024-09-15T08:47:14.000Z</time>
      </trkpt>
      <trkpt lat="42.126114" lon="-73.943552">
        <ele>49.592749</ele>
        <time>2024-09-15T08:47:19.000Z</time>
      </trkpt>
      <trkpt lat="42.126741" lon="-73.942994">
        <ele>49.400193</ele>
        <time>2024-09-15T08:47:27.000Z</time>
      </trkpt>
      <trkpt lat="42.127138" lon="-73.942722">
        <ele>49.110911</ele>
        <time>2024-09-15T08:47:32.000Z</time>
      </trkpt>
      <trkpt lat="42.127571" lon="-73.942522">
        <ele>48.825376</ele>
        <time>2024-09-15T08:47:37.000Z</time>
      </trkpt>
      <trkpt lat="42.127892" lon="-73.942401">
        <ele>48.613154</ele>
        <time>2024-09-15T08:47:41.000Z</time>
      </trkpt>
      <trkpt lat="42.128672" lon="-73.942303">
        <ele>48.272975</ele>
        <time>2024-09-15T08:47:50.000Z</time>
      </trkpt>
      <trkpt lat="42.129513" lon="-73.942101">
        <ele>48.1689</ele>
        <time>2024-09-15T08:47:59.000Z</time>
      </trkpt>
      <trkpt lat="42.129708" lon="-73.941974">
        <ele>48.142197</ele>
        <time>2024-09-15T08:48:01.000Z</time>
      </trkpt>
      <trkpt lat="42.129831" lon="-73.941856">
        <ele>48.124623</ele>
        <time>2024-09-15T08:48:03.000Z</time>
      </trkpt>
      <trkpt lat="42.129931" lon="-73.941501">
        <ele>48.091042</ele>
        <time>2024-09-15T08:48:06.000Z</time>
      </trkpt>
      <trkpt lat="42.130184" lon="-73.940048">
        <ele>49.304788</ele>
        <time>2024-09-15T08:48:18.000Z</time>
      </trkpt>
      <trkpt lat="42.130209" lon="-73.939914">
        <ele>49.421017</ele>
        <time>2024-09-15T08:48:19.000Z</time>
      </trkpt>
      <trkpt lat="42.130334" lon="-73.939159">
        <ele>50.052717</ele>
        <time>2024-09-15T08:48:25.000Z</time>
      </trkpt>
      <trkpt lat="42.130392" lon="-73.93903">
        <ele>50.097495</ele>
        <time>2024-09-15T08:48:26.000Z</time>
      </trkpt>
      <trkpt lat="42.130605" lon="-73.939162">
        <ele>50.156736</ele>
        <time>2024-09-15T08:48:29.000Z</time>
      </trkpt>
      <trkpt lat="42.131006" lon="-73.939231">
        <ele>50.26078</ele>
        <time>2024-09-15T08:48:33.000Z</time>
      </trkpt>
      <trkpt lat="42.131641" lon="-73.939314">
        <ele>50.422142</ele>
        <time>2024-09-15T08:48:40.000Z</time>
      </trkpt>
      <trkpt lat="42.131778" lon="-73.939384">
        <ele>50.456519</ele>
        <time>2024-09-15T08:48:42.000Z</time>
      </trkpt>
      <trkpt lat="42.132021" lon="-73.939587">
        <ele>50.526731</ele>
        <time>2024-09-15T08:48:45.000Z</time>
      </trkpt>
      <trkpt lat="42.132134" lon="-73.93969">
        <ele>50.470348</ele>
        <time>2024-09-15T08:48:47.000Z</time>
      </trkpt>
      <trkpt lat="42.132328" lon="-73.939923">
        <ele>50.350772</ele>
        <time>2024-09-15T08:48:50.000Z</time>
      </trkpt>
      <trkpt lat="42.133302" lon="-73.941694">
        <ele>49.64702</ele>
        <time>2024-09-15T08:49:08.000Z</time>
      </trkpt>
      <trkpt lat="42.133468" lon="-73.941963">
        <ele>49.549561</ele>
        <time>2024-09-15T08:49:11.000Z</time>
      </trkpt>
      <trkpt lat="42.133762" lon="-73.942243">
        <ele>49.404122</ele>
        <time>2024-09-15T08:49:15.000Z</time>
      </trkpt>
      <trkpt lat="42.133812" lon="-73.942331">
        <ele>49.3731</ele>
        <time>2024-09-15T08:49:16.000Z</time>
      </trkpt>
      <trkpt lat="42.133898" lon="-73.942562">
        <ele>49.299202</ele>
        <time>2024-09-15T08:49:18.000Z</time>
      </trkpt>
      <trkpt lat="42.134104" lon="-73.943401">
        <ele>49.036813</ele>
        <time>2024-09-15T08:49:25.000Z</time>
      </trkpt>
      <trkpt lat="42.134165" lon="-73.94353">
        <ele>49.0021</ele>
        <time>2024-09-15T08:49:26.000Z</time>
      </trkpt>
      <trkpt lat="42.134341" lon="-73.943721">
        <ele>48.934537</ele>
        <time>2024-09-15T08:49:29.000Z</time>
      </trkpt>
      <trkpt lat="42.134948" lon="-73.944337">
        <ele>48.699988</ele>
        <time>2024-09-15T08:49:37.000Z</time>
      </trkpt>
      <trkpt lat="42.135508" lon="-73.944966">
        <ele>48.489028</ele>
        <time>2024-09-15T08:49:45.000Z</time>
      </trkpt>
      <trkpt lat="42.135686" lon="-73.945152">
        <ele>48.567849</ele>
        <time>2024-09-15T08:49:48.000Z</time>
      </trkpt>
      <trkpt lat="42.135873" lon="-73.945361">
        <ele>48.65938</ele>
        <time>2024-09-15T08:49:51.000Z</time>
      </trkpt>
      <trkpt lat="42.136054" lon="-73.945505">
        <ele>48.737983</ele>
        <time>2024-09-15T08:49:53.000Z</time>
      </trkpt>
      <trkpt lat="42.136191" lon="-73.945566">
        <ele>48.790757</ele>
        <time>2024-09-15T08:49:55.000Z</time>
      </trkpt>
      <trkpt lat="42.13646" lon="-73.945553">
        <ele>48.893304</ele>
        <time>2024-09-15T08:49:58.000Z</time>
      </trkpt>
      <trkpt lat="42.136999" lon="-73.945336">
        <ele>49.099677</ele>
        <time>2024-09-15T08:50:04.000Z</time>
      </trkpt>
      <trkpt lat="42.137249" lon="-73.94534">
        <ele>49.123684</ele>
        <time>2024-09-15T08:50:07.000Z</time>
      </trkpt>
      <trkpt lat="42.137355" lon="-73.945407">
        <ele>49.098248</ele>
        <time>2024-09-15T08:50:08.000Z</time>
      </trkpt>
      <trkpt lat="42.137447" lon="-73.945535">
        <ele>49.07019</ele>
        <time>2024-09-15T08:50:09.000Z</time>
      </trkpt>
      <trkpt lat="42.137561" lon="-73.945764">
        <ele>49.028823</ele>
        <time>2024-09-15T08:50:11.000Z</time>
      </trkpt>
      <trkpt lat="42.137835" lon="-73.946555">
        <ele>48.896388</ele>
        <time>2024-09-15T08:50:18.000Z</time>
      </trkpt>
      <trkpt lat="42.137991" lon="-73.946935">
        <ele>48.831035</ele>
        <time>2024-09-15T08:50:22.000Z</time>
      </trkpt>
      <trkpt lat="42.138914" lon="-73.948996">
        <ele>48.334354</ele>
        <time>2024-09-15T08:50:42.000Z</time>
      </trkpt>
      <trkpt lat="42.139221" lon="-73.949718">
        <ele>48.549795</ele>
        <time>2024-09-15T08:50:49.000Z</time>
      </trkpt>
      <trkpt lat="42.139881" lon="-73.951185">
        <ele>49.661993</ele>
        <time>2024-09-15T08:51:03.000Z</time>
      </trkpt>
      <trkpt lat="42.140197" lon="-73.951941">
        <ele>50.085085</ele>
        <time>2024-09-15T08:51:10.000Z</time>
      </trkpt>
      <trkpt lat="42.14047" lon="-73.952381">
        <ele>50.321869</ele>
        <time>2024-09-15T08:51:15.000Z</time>
      </trkpt>
      <trkpt lat="42.141303" lon="-73.953533">
        <ele>50.750973</ele>
        <time>2024-09-15T08:51:28.000Z</time>
      </trkpt>
      <trkpt lat="42.140474" lon="-73.952377">
        <ele>50.388305</ele>
        <time>2024-09-15T08:51:41.000Z</time>
      </trkpt>
      <trkpt lat="42.140207" lon="-73.951934">
        <ele>50.20587</ele>
        <time>2024-09-15T08:51:46.000Z</time>
      </trkpt>
      <trkpt lat="42.139869" lon="-73.951195">
        <ele>49.582085</ele>
        <time>2024-09-15T08:51:53.000Z</time>
      </trkpt>
      <trkpt lat="42.139211" lon="-73.94971">
        <ele>48.550974</ele>
        <time>2024-09-15T08:52:07.000Z</time>
      </trkpt>
      <trkpt lat="42.138915" lon="-73.949007">
        <ele>48.528654</ele>
        <time>2024-09-15T08:52:14.000Z</time>
      </trkpt>
      <trkpt lat="42.137999" lon="-73.946926">
        <ele>48.825455</ele>
        <time>2024-09-15T08:52:34.000Z</time>
      </trkpt>
      <trkpt lat="42.13784" lon="-73.946562">
        <ele>48.956732</ele>
        <time>2024-09-15T08:52:37.000Z</time>
      </trkpt>
      <trkpt lat="42.137563" lon="-73.945769">
        <ele>49.222776</ele>
        <time>2024-09-15T08:52:44.000Z</time>
      </trkpt>
      <trkpt lat="42.137456" lon="-73.945547">
        <ele>49.171172</ele>
        <time>2024-09-15T08:52:46.000Z</time>
      </trkpt>
      <trkpt lat="42.137352" lon="-73.945421">
        <ele>49.121596</ele>
        <time>2024-09-15T08:52:48.000Z</time>
      </trkpt>
      <trkpt lat="42.137248" lon="-73.945343">
        <ele>49.076635</ele>
        <time>2024-09-15T08:52:49.000Z</time>
      </trkpt>
      <trkpt lat="42.137005" lon="-73.945337">
        <ele>48.990777</ele>
        <time>2024-09-15T08:52:52.000Z</time>
      </trkpt>
      <trkpt lat="42.136473" lon="-73.945557">
        <ele>48.787973</ele>
        <time>2024-09-15T08:52:58.000Z</time>
      </trkpt>
      <trkpt lat="42.136182" lon="-73.945565">
        <ele>48.687228</ele>
        <time>2024-09-15T08:53:01.000Z</time>
      </trkpt>
      <trkpt lat="42.136048" lon="-73.945496">
        <ele>48.635361</ele>
        <time>2024-09-15T08:53:03.000Z</time>
      </trkpt>
      <trkpt lat="42.135875" lon="-73.945349">
        <ele>48.589721</ele>
        <time>2024-09-15T08:53:05.000Z</time>
      </trkpt>
      <trkpt lat="42.13568" lon="-73.945142">
        <ele>48.61573</ele>
        <time>2024-09-15T08:53:08.000Z</time>
      </trkpt>
      <trkpt lat="42.135506" lon="-73.944977">
        <ele>48.63813</ele>
        <time>2024-09-15T08:53:10.000Z</time>
      </trkpt>
      <trkpt lat="42.134957" lon="-73.944336">
        <ele>48.714135</ele>
        <time>2024-09-15T08:53:18.000Z</time>
      </trkpt>
      <trkpt lat="42.134331" lon="-73.943735">
        <ele>48.869271</ele>
        <time>2024-09-15T08:53:27.000Z</time>
      </trkpt>
      <trkpt lat="42.134178" lon="-73.943529">
        <ele>48.965763</ele>
        <time>2024-09-15T08:53:29.000Z</time>
      </trkpt>
      <trkpt lat="42.134106" lon="-73.943408">
        <ele>49.013868</ele>
        <time>2024-09-15T08:53:30.000Z</time>
      </trkpt>
      <trkpt lat="42.133893" lon="-73.942553">
        <ele>49.304121</ele>
        <time>2024-09-15T08:53:37.000Z</time>
      </trkpt>
      <trkpt lat="42.133811" lon="-73.942332">
        <ele>49.385872</ele>
        <time>2024-09-15T08:53:39.000Z</time>
      </trkpt>
      <trkpt lat="42.133756" lon="-73.942252">
        <ele>49.420193</ele>
        <time>2024-09-15T08:53:40.000Z</time>
      </trkpt>
      <trkpt lat="42.133467" lon="-73.941963">
        <ele>49.57936</ele>
        <time>2024-09-15T08:53:44.000Z</time>
      </trkpt>
      <trkpt lat="42.133304" lon="-73.941707">
        <ele>49.679985</ele>
        <time>2024-09-15T08:53:47.000Z</time>
      </trkpt>
      <trkpt lat="42.132331" lon="-73.93994">
        <ele>50.302257</ele>
        <time>2024-09-15T08:54:05.000Z</time>
      </trkpt>
      <trkpt lat="42.132119" lon="-73.939677">
        <ele>50.332356</ele>
        <time>2024-09-15T08:54:08.000Z</time>
      </trkpt>
      <trkpt lat="42.132008" lon="-73.939582">
        <ele>50.347576</ele>
        <time>2024-09-15T08:54:09.000Z</time>
      </trkpt>
      <trkpt lat="42.131772" lon="-73.939393">
        <ele>50.3783</ele>
        <time>2024-09-15T08:54:12.000Z</time>
      </trkpt>
      <trkpt lat="42.131644" lon="-73.939316">
        <ele>50.393339</ele>
        <time>2024-09-15T08:54:14.000Z</time>
      </trkpt>
      <trkpt lat="42.131003" lon="-73.939218">
        <ele>50.463925</ele>
        <time>2024-09-15T08:54:21.000Z</time>
      </trkpt>
      <trkpt lat="42.1306" lon="-73.939155">
        <ele>50.256372</ele>
        <time>2024-09-15T08:54:26.000Z</time>
      </trkpt>
      <trkpt lat="42.130385" lon="-73.939026">
        <ele>50.013005</ele>
        <time>2024-09-15T08:54:29.000Z</time>
      </trkpt>
      <trkpt lat="42.130342" lon="-73.939173">
        <ele>49.89945</ele>
        <time>2024-09-15T08:54:30.000Z</time>
      </trkpt>
      <trkpt lat="42.13021" lon="-73.939923">
        <ele>49.306497</ele>
        <time>2024-09-15T08:54:36.000Z</time>
      </trkpt>
      <trkpt lat="42.130179" lon="-73.940051">
        <ele>49.197391</ele>
        <time>2024-09-15T08:54:37.000Z</time>
      </trkpt>
      <trkpt lat="42.12992" lon="-73.941495">
        <ele>48.419134</ele>
        <time>2024-09-15T08:54:49.000Z</time>
      </trkpt>
      <trkpt lat="42.129822" lon="-73.941839">
        <ele>48.316202</ele>
        <time>2024-09-15T08:54:52.000Z</time>
      </trkpt>
      <trkpt lat="42.129707" lon="-73.941966">
        <ele>48.262265</ele>
        <time>2024-09-15T08:54:54.000Z</time>
      </trkpt>
      <trkpt lat="42.12951" lon="-73.942091">
        <ele>48.180431</ele>
        <time>2024-09-15T08:54:56.000Z</time>
      </trkpt>
      <trkpt lat="42.12866" lon="-73.942302">
        <ele>48.130669</ele>
        <time>2024-09-15T08:55:06.000Z</time>
      </trkpt>
      <trkpt lat="42.127898" lon="-73.942406">
        <ele>48.672371</ele>
        <time>2024-09-15T08:55:15.000Z</time>
      </trkpt>
      <trkpt lat="42.127569" lon="-73.94253">
        <ele>48.90699</ele>
        <time>2024-09-15T08:55:19.000Z</time>
      </trkpt>
      <trkpt lat="42.127139" lon="-73.942725">
        <ele>49.215495</ele>
        <time>2024-09-15T08:55:24.000Z</time>
      </trkpt>
      <trkpt lat="42.126726" lon="-73.942995">
        <ele>49.344724</ele>
        <time>2024-09-15T08:55:29.000Z</time>
      </trkpt>
      <trkpt lat="42.126123" lon="-73.943561">
        <ele>49.55339</ele>
        <time>2024-09-15T08:55:37.000Z</time>
      </trkpt>
      <trkpt lat="42.125759" lon="-73.943895">
        <ele>49.678569</ele>
        <time>2024-09-15T08:55:42.000Z</time>
      </trkpt>
      <trkpt lat="42.125604" lon="-73.944029">
        <ele>49.722092</ele>
        <time>2024-09-15T08:55:44.000Z</time>
      </trkpt>
      <trkpt lat="42.125537" lon="-73.944115">
        <ele>49.733679</ele>
        <time>2024-09-15T08:55:45.000Z</time>
      </trkpt>
      <trkpt lat="42.125305" lon="-73.944367">
        <ele>49.765805</ele>
        <time>2024-09-15T08:55:48.000Z</time>
      </trkpt>
      <trkpt lat="42.124485" lon="-73.945278">
        <ele>49.884983</ele>
        <time>2024-09-15T08:56:00.000Z</time>
      </trkpt>
      <trkpt lat="42.124232" lon="-73.945619">
        <ele>49.868089</ele>
        <time>2024-09-15T08:56:04.000Z</time>
      </trkpt>
      <trkpt lat="42.123797" lon="-73.946262">
        <ele>49.343218</ele>
        <time>2024-09-15T08:56:11.000Z</time>
      </trkpt>
      <trkpt lat="42.123646" lon="-73.946476">
        <ele>49.15122</ele>
        <time>2024-09-15T08:56:13.000Z</time>
      </trkpt>
      <trkpt lat="42.123582" lon="-73.946664">
        <ele>49.022825</ele>
        <time>2024-09-15T08:56:15.000Z</time>
      </trkpt>
      <trkpt lat="42.123553" lon="-73.946764">
        <ele>48.954818</ele>
        <time>2024-09-15T08:56:16.000Z</time>
      </trkpt>
      <trkpt lat="42.123439" lon="-73.946949">
        <ele>48.801334</ele>
        <time>2024-09-15T08:56:18.000Z</time>
      </trkpt>
      <trkpt lat="42.122784" lon="-73.947534">
        <ele>48.01008</ele>
        <time>2024-09-15T08:56:27.000Z</time>
      </trkpt>
      <trkpt lat="42.122555" lon="-73.947844">
        <ele>47.613117</ele>
        <time>2024-09-15T08:56:31.000Z</time>
      </trkpt>
      <trkpt lat="42.12243" lon="-73.948202">
        <ele>47.25511</ele>
        <time>2024-09-15T08:56:34.000Z</time>
      </trkpt>
      <trkpt lat="42.12233" lon="-73.948681">
        <ele>46.792879</ele>
        <time>2024-09-15T08:56:38.000Z</time>
      </trkpt>
      <trkpt lat="42.122311" lon="-73.948619">
        <ele>46.736957</ele>
        <time>2024-09-15T08:56:39.000Z</time>
      </trkpt>
      <trkpt lat="42.121941" lon="-73.947876">
        <ele>46.045452</ele>
        <time>2024-09-15T08:56:46.000Z</time>
      </trkpt>
      <trkpt lat="42.12111" lon="-73.945981">
        <ele>45.057737</ele>
        <time>2024-09-15T08:57:04.000Z</time>
      </trkpt>
      <trkpt lat="42.121115" lon="-73.945954">
        <ele>45.051756</ele>
        <time>2024-09-15T08:57:04.000Z</time>
      </trkpt>
      <trkpt lat="42.120948" lon="-73.945573">
        <ele>44.945519</ele>
        <time>2024-09-15T08:57:08.000Z</time>
      </trkpt>
      <trkpt lat="42.120736" lon="-73.945266">
        <ele>44.842217</ele>
        <time>2024-09-15T08:57:11.000Z</time>
      </trkpt>
      <trkpt lat="42.120681" lon="-73.945127">
        <ele>44.801899</ele>
        <time>2024-09-15T08:57:12.000Z</time>
      </trkpt>
      <trkpt lat="42.120641" lon="-73.944923">
        <ele>44.750202</ele>
        <time>2024-09-15T08:57:14.000Z</time>
      </trkpt>
      <trkpt lat="42.120589" lon="-73.944677">
        <ele>44.690979</ele>
        <time>2024-09-15T08:57:16.000Z</time>
      </trkpt>
      <trkpt lat="42.120503" lon="-73.944349">
        <ele>44.603301</ele>
        <time>2024-09-15T08:57:19.000Z</time>
      </trkpt>
      <trkpt lat="42.119161" lon="-73.940924">
        <ele>45.271853</ele>
        <time>2024-09-15T08:57:51.000Z</time>
      </trkpt>
      <trkpt lat="42.119144" lon="-73.940922">
        <ele>45.278811</ele>
        <time>2024-09-15T08:57:51.000Z</time>
      </trkpt>
      <trkpt lat="42.118741" lon="-73.940052">
        <ele>45.968328</ele>
        <time>2024-09-15T08:57:59.000Z</time>
      </trkpt>
      <trkpt lat="42.117655" lon="-73.937985">
        <ele>48.288209</ele>
        <time>2024-09-15T08:58:20.000Z</time>
      </trkpt>
      <trkpt lat="42.117538" lon="-73.937674">
        <ele>48.606586</ele>
        <time>2024-09-15T08:58:23.000Z</time>
      </trkpt>
      <trkpt lat="42.117452" lon="-73.93715">
        <ele>48.423135</ele>
        <time>2024-09-15T08:58:27.000Z</time>
      </trkpt>
      <trkpt lat="42.117408" lon="-73.936777">
        <ele>48.29256</ele>
        <time>2024-09-15T08:58:30.000Z</time>
      </trkpt>
      <trkpt lat="42.117276" lon="-73.935253">
        <ele>47.766913</ele>
        <time>2024-09-15T08:58:43.000Z</time>
      </trkpt>
      <trkpt lat="42.117218" lon="-73.934966">
        <ele>47.700456</ele>
        <time>2024-09-15T08:58:45.000Z</time>
      </trkpt>
      <trkpt lat="42.11698" lon="-73.935174">
        <ele>47.615613</ele>
        <time>2024-09-15T08:58:48.000Z</time>
      </trkpt>
      <trkpt lat="42.11665" lon="-73.935431">
        <ele>47.505564</ele>
        <time>2024-09-15T08:58:52.000Z</time>
      </trkpt>
      <trkpt lat="42.116468" lon="-73.935526">
        <ele>47.449216</ele>
        <time>2024-09-15T08:58:54.000Z</time>
      </trkpt>
      <trkpt lat="42.116195" lon="-73.935631">
        <ele>47.365134</ele>
        <time>2024-09-15T08:58:57.000Z</time>
      </trkpt>
      <trkpt lat="42.114749" lon="-73.935978">
        <ele>47.341998</ele>
        <time>2024-09-15T08:59:13.000Z</time>
      </trkpt>
      <trkpt lat="42.113911" lon="-73.936161">
        <ele>47.297334</ele>
        <time>2024-09-15T08:59:22.000Z</time>
      </trkpt>
      <trkpt lat="42.113091" lon="-73.936247">
        <ele>46.556735</ele>
        <time>2024-09-15T08:59:31.000Z</time>
      </trkpt>
      <trkpt lat="42.112717" lon="-73.936245">
        <ele>46.212177</ele>
        <time>2024-09-15T08:59:35.000Z</time>
      </trkpt>
      <trkpt lat="42.112528" lon="-73.936185">
        <ele>46.04047</ele>
        <time>2024-09-15T08:59:37.000Z</time>
      </trkpt>
      <trkpt lat="42.111789" lon="-73.93592">
        <ele>45.263481</ele>
        <time>2024-09-15T08:59:46.000Z</time>
      </trkpt>
      <trkpt lat="42.111604" lon="-73.935928">
        <ele>45.058159</ele>
        <time>2024-09-15T08:59:48.000Z</time>
      </trkpt>
      <trkpt lat="42.111376" lon="-73.935952">
        <ele>44.824075</ele>
        <time>2024-09-15T08:59:51.000Z</time>
      </trkpt>
      <trkpt lat="42.111097" lon="-73.936076">
        <ele>44.499893</ele>
        <time>2024-09-15T08:59:54.000Z</time>
      </trkpt>
      <trkpt lat="42.109411" lon="-73.937084">
        <ele>43.769611</ele>
        <time>2024-09-15T09:00:15.000Z</time>
      </trkpt>
      <trkpt lat="42.109092" lon="-73.937274">
        <ele>43.752501</ele>
        <time>2024-09-15T09:00:19.000Z</time>
      </trkpt>
      <trkpt lat="42.108817" lon="-73.937437">
        <ele>43.750477</ele>
        <time>2024-09-15T09:00:22.000Z</time>
      </trkpt>
      <trkpt lat="42.108441" lon="-73.937614">
        <ele>43.788202</ele>
        <time>2024-09-15T09:00:26.000Z</time>
      </trkpt>
      <trkpt lat="42.108037" lon="-73.937719">
        <ele>43.82775</ele>
        <time>2024-09-15T09:00:31.000Z</time>
      </trkpt>
      <trkpt lat="42.107394" lon="-73.937797">
        <ele>43.89131</ele>
        <time>2024-09-15T09:00:38.000Z</time>
      </trkpt>
      <trkpt lat="42.105953" lon="-73.937892">
        <ele>43.711189</ele>
        <time>2024-09-15T09:00:54.000Z</time>
      </trkpt>
      <trkpt lat="42.105782" lon="-73.937914">
        <ele>43.681496</ele>
        <time>2024-09-15T09:00:56.000Z</time>
      </trkpt>
      <trkpt lat="42.105304" lon="-73.937933">
        <ele>43.617814</ele>
        <time>2024-09-15T09:01:01.000Z</time>
      </trkpt>
      <trkpt lat="42.105049" lon="-73.937914">
        <ele>43.719347</ele>
        <time>2024-09-15T09:01:04.000Z</time>
      </trkpt>
      <trkpt lat="42.103994" lon="-73.937712">
        <ele>44.167637</ele>
        <time>2024-09-15T09:01:16.000Z</time>
      </trkpt>
      <trkpt lat="42.103376" lon="-73.937541">
        <ele>44.331578</ele>
        <time>2024-09-15T09:01:23.000Z</time>
      </trkpt>
      <trkpt lat="42.10301" lon="-73.937507">
        <ele>44.282984</ele>
        <time>2024-09-15T09:01:27.000Z</time>
      </trkpt>
      <trkpt lat="42.10269" lon="-73.937529">
        <ele>44.239654</ele>
        <time>2024-09-15T09:01:31.000Z</time>
      </trkpt>
      <trkpt lat="42.10229" lon="-73.937627">
        <ele>44.188717</ele>
        <time>2024-09-15T09:01:36.000Z</time>
      </trkpt>
      <trkpt lat="42.101799" lon="-73.937834">
        <ele>44.121557</ele>
        <time>2024-09-15T09:01:42.000Z</time>
      </trkpt>
      <trkpt lat="42.101241" lon="-73.938111">
        <ele>44.729531</ele>
        <time>2024-09-15T09:01:49.000Z</time>
      </trkpt>
      <trkpt lat="42.100107" lon="-73.938587">
        <ele>45.982197</ele>
        <time>2024-09-15T09:02:02.000Z</time>
      </trkpt>
      <trkpt lat="42.099641" lon="-73.938754">
        <ele>47.240409</ele>
        <time>2024-09-15T09:02:07.000Z</time>
      </trkpt>
      <trkpt lat="42.099352" lon="-73.938812">
        <ele>47.999944</ele>
        <time>2024-09-15T09:02:10.000Z</time>
      </trkpt>
      <trkpt lat="42.098286" lon="-73.938887">
        <ele>50.817408</ele>
        <time>2024-09-15T09:02:22.000Z</time>
      </trkpt>
      <trkpt lat="42.09749" lon="-73.939025">
        <ele>52.48543</ele>
        <time>2024-09-15T09:02:31.000Z</time>
      </trkpt>
      <trkpt lat="42.097253" lon="-73.939058">
        <ele>53.000705</ele>
        <time>2024-09-15T09:02:34.000Z</time>
      </trkpt>
      <trkpt lat="42.09667" lon="-73.939167">
        <ele>54.249565</ele>
        <time>2024-09-15T09:02:41.000Z</time>
      </trkpt>
      <trkpt lat="42.096433" lon="-73.939232">
        <ele>54.537316</ele>
        <time>2024-09-15T09:02:44.000Z</time>
      </trkpt>
      <trkpt lat="42.09607" lon="-73.939378">
        <ele>54.434829</ele>
        <time>2024-09-15T09:02:48.000Z</time>
      </trkpt>
      <trkpt lat="42.095958" lon="-73.939421">
        <ele>54.407992</ele>
        <time>2024-09-15T09:02:49.000Z</time>
      </trkpt>
      <trkpt lat="42.095358" lon="-73.939685">
        <ele>54.240605</ele>
        <time>2024-09-15T09:02:56.000Z</time>
      </trkpt>
      <trkpt lat="42.095029" lon="-73.939796">
        <ele>54.148619</ele>
        <time>2024-09-15T09:03:00.000Z</time>
      </trkpt>
      <trkpt lat="42.094435" lon="-73.939969">
        <ele>53.444134</ele>
        <time>2024-09-15T09:03:07.000Z</time>
      </trkpt>
      <trkpt lat="42.094153" lon="-73.939968">
        <ele>52.934981</ele>
        <time>2024-09-15T09:03:10.000Z</time>
      </trkpt>
      <trkpt lat="42.094016" lon="-73.939946">
        <ele>52.694085</ele>
        <time>2024-09-15T09:03:12.000Z</time>
      </trkpt>
      <trkpt lat="42.093258" lon="-73.939733">
        <ele>51.326101</ele>
        <time>2024-09-15T09:03:21.000Z</time>
      </trkpt>
      <trkpt lat="42.092854" lon="-73.939685">
        <ele>50.53131</ele>
        <time>2024-09-15T09:03:26.000Z</time>
      </trkpt>
      <trkpt lat="42.091893" lon="-73.939603">
        <ele>48.155053</ele>
        <time>2024-09-15T09:03:37.000Z</time>
      </trkpt>
      <trkpt lat="42.09144" lon="-73.939635">
        <ele>47.058074</ele>
        <time>2024-09-15T09:03:42.000Z</time>
      </trkpt>
      <trkpt lat="42.090992" lon="-73.939714">
        <ele>46.15002</ele>
        <time>2024-09-15T09:03:47.000Z</time>
      </trkpt>
      <trkpt lat="42.090658" lon="-73.939806">
        <ele>45.560157</ele>
        <time>2024-09-15T09:03:51.000Z</time>
      </trkpt>
      <trkpt lat="42.090369" lon="-73.939963">
        <ele>45.026606</ele>
        <time>2024-09-15T09:03:54.000Z</time>
      </trkpt>
      <trkpt lat="42.090024" lon="-73.940276">
        <ele>44.326056</ele>
        <time>2024-09-15T09:03:59.000Z</time>
      </trkpt>
      <trkpt lat="42.089696" lon="-73.940668">
        <ele>43.584603</ele>
        <time>2024-09-15T09:04:04.000Z</time>
      </trkpt>
      <trkpt lat="42.08941" lon="-73.940975">
        <ele>43.23879</ele>
        <time>2024-09-15T09:04:08.000Z</time>
      </trkpt>
      <trkpt lat="42.089141" lon="-73.941213">
        <ele>43.006156</ele>
        <time>2024-09-15T09:04:12.000Z</time>
      </trkpt>
      <trkpt lat="42.088714" lon="-73.941456">
        <ele>42.65168</ele>
        <time>2024-09-15T09:04:17.000Z</time>
      </trkpt>
      <trkpt lat="42.088268" lon="-73.941625">
        <ele>42.303829</ele>
        <time>2024-09-15T09:04:22.000Z</time>
      </trkpt>
      <trkpt lat="42.087399" lon="-73.941715">
        <ele>41.609829</ele>
        <time>2024-09-15T09:04:32.000Z</time>
      </trkpt>
      <trkpt lat="42.086883" lon="-73.941816">
        <ele>41.17821</ele>
        <time>2024-09-15T09:04:38.000Z</time>
      </trkpt>
      <trkpt lat="42.085486" lon="-73.942348">
        <ele>41.899939</ele>
        <time>2024-09-15T09:04:54.000Z</time>
      </trkpt>
      <trkpt lat="42.085006" lon="-73.942668">
        <ele>42.713425</ele>
        <time>2024-09-15T09:05:00.000Z</time>
      </trkpt>
      <trkpt lat="42.084435" lon="-73.943188">
        <ele>44.273904</ele>
        <time>2024-09-15T09:05:08.000Z</time>
      </trkpt>
      <trkpt lat="42.084279" lon="-73.943309">
        <ele>44.887378</ele>
        <time>2024-09-15T09:05:10.000Z</time>
      </trkpt>
      <trkpt lat="42.084193" lon="-73.943375">
        <ele>45.260675</ele>
        <time>2024-09-15T09:05:11.000Z</time>
      </trkpt>
      <trkpt lat="42.083827" lon="-73.943639">
        <ele>46.728524</ele>
        <time>2024-09-15T09:05:16.000Z</time>
      </trkpt>
      <trkpt lat="42.08355" lon="-73.943734">
        <ele>47.737087</ele>
        <time>2024-09-15T09:05:19.000Z</time>
      </trkpt>
      <trkpt lat="42.083025" lon="-73.943832">
        <ele>49.614039</ele>
        <time>2024-09-15T09:05:25.000Z</time>
      </trkpt>
      <trkpt lat="42.082457" lon="-73.943925">
        <ele>49.92609</ele>
        <time>2024-09-15T09:05:31.000Z</time>
      </trkpt>
      <trkpt lat="42.08224" lon="-73.943963">
        <ele>49.956268</ele>
        <time>2024-09-15T09:05:33.000Z</time>
      </trkpt>
      <trkpt lat="42.08189" lon="-73.944028">
        <ele>50.009287</ele>
        <time>2024-09-15T09:05:37.000Z</time>
      </trkpt>
      <trkpt lat="42.081545" lon="-73.944079">
        <ele>50.059817</ele>
        <time>2024-09-15T09:05:41.000Z</time>
      </trkpt>
      <trkpt lat="42.080737" lon="-73.944129">
        <ele>49.036144</ele>
        <time>2024-09-15T09:05:50.000Z</time>
      </trkpt>
      <trkpt lat="42.080538" lon="-73.944085">
        <ele>48.567724</ele>
        <time>2024-09-15T09:05:52.000Z</time>
      </trkpt>
      <trkpt lat="42.080372" lon="-73.944129">
        <ele>48.130539</ele>
        <time>2024-09-15T09:05:54.000Z</time>
      </trkpt>
      <trkpt lat="42.080283" lon="-73.944309">
        <ele>47.740557</ele>
        <time>2024-09-15T09:05:56.000Z</time>
      </trkpt>
      <trkpt lat="42.079954" lon="-73.945818">
        <ele>45.517946</ele>
        <time>2024-09-15T09:06:09.000Z</time>
      </trkpt>
      <trkpt lat="42.079894" lon="-73.946076">
        <ele>45.374804</ele>
        <time>2024-09-15T09:06:11.000Z</time>
      </trkpt>
      <trkpt lat="42.079805" lon="-73.946529">
        <ele>45.129841</ele>
        <time>2024-09-15T09:06:15.000Z</time>
      </trkpt>
      <trkpt lat="42.079703" lon="-73.946876">
        <ele>44.936209</ele>
        <time>2024-09-15T09:06:18.000Z</time>
      </trkpt>
      <trkpt lat="42.079586" lon="-73.947212">
        <ele>44.75233</ele>
        <time>2024-09-15T09:06:21.000Z</time>
      </trkpt>
      <trkpt lat="42.079338" lon="-73.947918">
        <ele>44.619501</ele>
        <time>2024-09-15T09:06:27.000Z</time>
      </trkpt>
      <trkpt lat="42.079009" lon="-73.94884">
        <ele>44.998164</ele>
        <time>2024-09-15T09:06:35.000Z</time>
      </trkpt>
      <trkpt lat="42.078595" lon="-73.950037">
        <ele>45.397668</ele>
        <time>2024-09-15T09:06:46.000Z</time>
      </trkpt>
      <trkpt lat="42.078238" lon="-73.951081">
        <ele>45.362039</ele>
        <time>2024-09-15T09:06:55.000Z</time>
      </trkpt>
      <trkpt lat="42.077785" lon="-73.95241">
        <ele>44.560382</ele>
        <time>2024-09-15T09:07:07.000Z</time>
      </trkpt>
      <trkpt lat="42.077153" lon="-73.95211">
        <ele>42.91043</ele>
        <time>2024-09-15T09:07:14.000Z</time>
      </trkpt>
      <trkpt lat="42.076695" lon="-73.951892">
        <ele>41.767777</ele>
        <time>2024-09-15T09:07:19.000Z</time>
      </trkpt>
      <trkpt lat="42.076302" lon="-73.951698">
        <ele>40.333464</ele>
        <time>2024-09-15T09:07:24.000Z</time>
      </trkpt>
      <trkpt lat="42.076019" lon="-73.951566">
        <ele>38.367848</ele>
        <time>2024-09-15T09:07:27.000Z</time>
      </trkpt>
      <trkpt lat="42.075851" lon="-73.951488">
        <ele>37.177619</ele>
        <time>2024-09-15T09:07:29.000Z</time>
      </trkpt>
      <trkpt lat="42.075679" lon="-73.951427">
        <ele>36.097963</ele>
        <time>2024-09-15T09:07:31.000Z</time>
      </trkpt>
      <trkpt lat="42.075404" lon="-73.95132">
        <ele>34.208071</ele>
        <time>2024-09-15T09:07:34.000Z</time>
      </trkpt>
      <trkpt lat="42.074933" lon="-73.95111">
        <ele>30.864311</ele>
        <time>2024-09-15T09:07:40.000Z</time>
      </trkpt>
      <trkpt lat="42.074373" lon="-73.950814">
        <ele>28.0816445826</ele>
        <time>2024-09-15T09:07:47.000Z</time>
      </trkpt>
      <trkpt lat="42.074043" lon="-73.950628">
        <ele>26.4269324658</ele>
        <time>2024-09-15T09:07:51.000Z</time>
      </trkpt>
      <trkpt lat="42.073796" lon="-73.950525">
        <ele>25.2308874249</ele>
        <time>2024-09-15T09:07:54.000Z</time>
      </trkpt>
      <trkpt lat="42.073741" lon="-73.950533">
        <ele>24.9749922789</ele>
        <time>2024-09-15T09:07:55.000Z</time>
      </trkpt>
      <trkpt lat="42.073685" lon="-73.949934">
        <ele>22.9020043619</ele>
        <time>2024-09-15T09:08:00.000Z</time>
      </trkpt>
    </trkseg>
  </trk>
</gpx>

<!--
Performance optimized by W3 Total Cache. Learn more: https://www.boldgrid.com/w3-total-cache/?utm_source=w3tc&utm_medium=footer_comment&utm_campaign=free_plugin

Page Caching using Disk: Enhanced{w3tc_pagecache_reject_reason} 

Served from: www.aquabike.world @ 2026-05-02 18:50:55 by W3 Total Cache
-->